createdAt,value
2022-08-07T00:00:03.119Z,0.00
2022-08-07T00:01:01.386Z,0.00
2022-08-07T00:02:40.497Z,0.00
2022-08-07T00:03:02.773Z,0.00
2022-08-07T00:04:01.358Z,0.00
2022-08-07T00:05:01.390Z,0.00
2022-08-07T00:06:01.342Z,0.00
2022-08-07T00:07:05.295Z,0.00
2022-08-07T00:08:02.370Z,0.00
2022-08-07T00:09:17.205Z,0.00
2022-08-07T00:10:25.578Z,0.00
2022-08-07T00:11:03.320Z,0.00
2022-08-07T00:12:01.297Z,0.00
2022-08-07T00:13:02.487Z,0.00
2022-08-07T00:14:03.290Z,0.00
2022-08-07T00:15:01.304Z,0.00
2022-08-07T00:16:01.269Z,0.00
2022-08-07T00:17:01.671Z,0.00
2022-08-07T00:18:01.249Z,0.00
2022-08-07T00:19:01.246Z,0.00
2022-08-07T00:20:03.480Z,0.00
2022-08-07T00:21:03.438Z,0.00
2022-08-07T00:22:03.353Z,0.00
2022-08-07T00:23:01.223Z,0.00
2022-08-07T00:24:01.205Z,0.00
2022-08-07T00:25:01.237Z,0.00
2022-08-07T00:26:13.330Z,0.00
2022-08-07T00:27:07.378Z,0.00
2022-08-07T00:28:02.231Z,0.00
2022-08-07T00:29:01.175Z,0.00
2022-08-07T00:30:01.197Z,0.00
2022-08-07T00:31:01.150Z,0.00
2022-08-07T00:32:02.154Z,0.00
2022-08-07T00:33:01.164Z,0.00
2022-08-07T00:34:01.132Z,0.00
2022-08-07T00:35:01.130Z,0.00
2022-08-07T00:36:01.145Z,0.00
2022-08-07T00:37:01.112Z,0.00
2022-08-07T00:38:01.118Z,0.00
2022-08-07T00:39:01.137Z,0.00
2022-08-07T00:40:01.163Z,0.00
2022-08-07T00:41:01.101Z,0.00
2022-08-07T00:42:01.813Z,0.00
2022-08-07T00:43:01.065Z,0.00
2022-08-07T00:44:03.002Z,0.00
2022-08-07T00:45:02.051Z,0.00
2022-08-07T00:46:02.249Z,0.00
2022-08-07T00:47:01.042Z,0.00
2022-08-07T00:48:08.218Z,0.00
2022-08-07T00:49:02.343Z,0.00
2022-08-07T00:50:21.367Z,0.00
2022-08-07T00:51:02.028Z,0.00
2022-08-07T00:52:00.993Z,0.00
2022-08-07T00:53:00.978Z,0.00
2022-08-07T00:54:01.979Z,0.00
2022-08-07T00:55:05.006Z,0.00
2022-08-07T00:56:03.696Z,0.00
2022-08-07T00:57:00.969Z,0.00
2022-08-07T00:58:00.957Z,0.00
2022-08-07T00:59:00.946Z,0.00
2022-08-07T01:00:00.936Z,0.00
2022-08-07T01:01:01.023Z,0.00
2022-08-07T01:02:01.005Z,0.00
2022-08-07T01:03:00.918Z,0.00
2022-08-07T01:04:00.906Z,0.00
2022-08-07T01:05:00.898Z,0.00
2022-08-07T01:06:00.914Z,0.00
2022-08-07T01:07:00.878Z,0.00
2022-08-07T01:08:00.873Z,0.00
2022-08-07T01:09:01.526Z,0.00
2022-08-07T01:10:06.897Z,0.00
2022-08-07T01:12:04.580Z,0.00
2022-08-07T01:12:09.745Z,0.00
2022-08-07T01:13:01.831Z,0.00
2022-08-07T01:14:00.826Z,0.00
2022-08-07T01:15:03.711Z,0.00
2022-08-07T01:16:05.829Z,0.00
2022-08-07T01:17:04.192Z,0.00
2022-08-07T01:18:01.801Z,0.00
2022-08-07T01:19:00.782Z,0.00
2022-08-07T01:20:00.777Z,0.00
2022-08-07T01:21:00.806Z,0.00
2022-08-07T01:22:00.765Z,0.00
2022-08-07T01:23:12.395Z,0.00
2022-08-07T01:24:01.750Z,0.00
2022-08-07T01:25:00.742Z,0.00
2022-08-07T01:26:00.768Z,0.00
2022-08-07T01:27:00.721Z,0.00
2022-08-07T01:28:00.718Z,0.00
2022-08-07T01:29:33.906Z,0.00
2022-08-07T01:30:00.891Z,0.00
2022-08-07T01:31:00.699Z,0.00
2022-08-07T01:32:00.715Z,0.00
2022-08-07T01:33:00.687Z,0.00
2022-08-07T01:34:00.676Z,0.00
2022-08-07T01:35:00.667Z,0.00
2022-08-07T01:36:06.311Z,0.00
2022-08-07T01:37:01.677Z,0.00
2022-08-07T01:38:00.662Z,0.00
2022-08-07T01:39:00.698Z,0.00
2022-08-07T01:40:00.815Z,0.00
2022-08-07T01:41:00.621Z,0.00
2022-08-07T01:42:36.766Z,0.00
2022-08-07T01:43:01.602Z,0.00
2022-08-07T01:44:00.595Z,0.00
2022-08-07T01:45:00.587Z,0.00
2022-08-07T01:46:00.599Z,0.00
2022-08-07T01:47:00.983Z,0.00
2022-08-07T01:48:30.494Z,0.00
2022-08-07T01:49:02.358Z,0.00
2022-08-07T01:50:00.706Z,0.00
2022-08-07T01:51:24.283Z,0.00
2022-08-07T01:52:04.745Z,0.00
2022-08-07T01:53:00.541Z,0.00
2022-08-07T01:54:09.412Z,0.00
2022-08-07T01:55:02.021Z,0.00
2022-08-07T01:56:00.500Z,0.00
2022-08-07T01:57:01.591Z,0.00
2022-08-07T01:58:01.350Z,0.00
2022-08-07T01:59:01.501Z,0.00
2022-08-07T02:00:00.477Z,0.00
2022-08-07T02:01:10.130Z,0.00
2022-08-07T02:02:04.255Z,0.00
2022-08-07T02:03:19.274Z,0.00
2022-08-07T02:04:01.538Z,0.00
2022-08-07T02:05:00.448Z,0.00
2022-08-07T02:06:01.027Z,0.00
2022-08-07T02:07:00.451Z,0.00
2022-08-07T02:08:00.414Z,0.00
2022-08-07T02:09:00.410Z,0.00
2022-08-07T02:10:00.404Z,0.00
2022-08-07T02:11:00.383Z,0.00
2022-08-07T02:12:04.948Z,0.00
2022-08-07T02:13:00.382Z,0.00
2022-08-07T02:14:02.332Z,0.00
2022-08-07T02:15:00.613Z,0.00
2022-08-07T02:16:00.356Z,0.00
2022-08-07T02:17:00.372Z,0.00
2022-08-07T02:18:00.339Z,0.00
2022-08-07T02:19:00.337Z,0.00
2022-08-07T02:20:04.348Z,0.00
2022-08-07T02:21:01.314Z,0.00
2022-08-07T02:22:01.331Z,0.00
2022-08-07T02:23:00.301Z,0.00
2022-08-07T02:24:00.295Z,0.00
2022-08-07T02:25:00.284Z,0.00
2022-08-07T02:26:31.791Z,0.00
2022-08-07T02:27:02.425Z,0.00
2022-08-07T02:28:00.257Z,0.00
2022-08-07T02:29:00.262Z,0.00
2022-08-07T02:30:00.242Z,0.00
2022-08-07T02:31:00.231Z,0.00
2022-08-07T02:32:01.350Z,0.00
2022-08-07T02:33:09.076Z,0.00
2022-08-07T02:34:03.170Z,0.00
2022-08-07T02:35:00.807Z,0.00
2022-08-07T02:36:30.302Z,0.00
2022-08-07T02:37:01.205Z,0.00
2022-08-07T02:38:00.178Z,0.00
2022-08-07T02:39:00.282Z,0.00
2022-08-07T02:40:11.698Z,0.00
2022-08-07T02:41:01.221Z,0.00
2022-08-07T02:42:00.181Z,0.00
2022-08-07T02:43:00.147Z,0.00
2022-08-07T02:44:00.133Z,0.00
2022-08-07T02:45:00.124Z,0.00
2022-08-07T02:46:02.104Z,0.00
2022-08-07T02:47:00.974Z,0.00
2022-08-07T02:48:01.611Z,0.00
2022-08-07T02:49:00.099Z,0.00
2022-08-07T02:50:00.490Z,0.00
2022-08-07T02:51:01.077Z,0.00
2022-08-07T02:52:00.114Z,0.00
2022-08-07T02:53:03.220Z,0.00
2022-08-07T02:54:00.068Z,0.00
2022-08-07T02:55:00.051Z,0.00
2022-08-07T02:56:02.353Z,0.00
2022-08-07T02:57:01.058Z,0.00
2022-08-07T02:58:00.030Z,0.00
2022-08-07T02:59:00.016Z,0.00
2022-08-07T03:00:01.247Z,0.00
2022-08-07T03:01:00.075Z,0.00
2022-08-07T03:02:02.239Z,0.00
2022-08-07T03:02:59.990Z,0.00
2022-08-07T03:04:03.182Z,0.00
2022-08-07T03:05:05.219Z,0.00
2022-08-07T03:06:00.981Z,0.00
2022-08-07T03:07:07.378Z,0.00
2022-08-07T03:08:05.325Z,0.00
2022-08-07T03:09:00.942Z,0.00
2022-08-07T03:09:59.935Z,0.00
2022-08-07T03:10:59.929Z,0.00
2022-08-07T03:12:02.580Z,0.00
2022-08-07T03:12:59.916Z,0.00
2022-08-07T03:14:01.742Z,0.00
2022-08-07T03:15:02.377Z,0.00
2022-08-07T03:16:00.892Z,4.00
2022-08-07T03:16:59.913Z,0.00
2022-08-07T03:17:59.879Z,0.00
2022-08-07T03:18:59.867Z,0.00
2022-08-07T03:19:59.862Z,4.00
2022-08-07T03:20:59.849Z,0.00
2022-08-07T03:21:59.872Z,4.00
2022-08-07T03:22:59.838Z,0.00
2022-08-07T03:24:19.790Z,4.00
2022-08-07T03:25:00.830Z,4.00
2022-08-07T03:26:00.010Z,4.00
2022-08-07T03:26:59.822Z,4.00
2022-08-07T03:28:09.624Z,4.00
2022-08-07T03:29:00.794Z,8.00
2022-08-07T03:29:59.779Z,8.00
2022-08-07T03:30:59.769Z,8.00
2022-08-07T03:31:59.790Z,12.00
2022-08-07T03:32:59.750Z,12.00
2022-08-07T03:33:59.747Z,16.00
2022-08-07T03:35:01.001Z,16.00
2022-08-07T03:36:00.731Z,20.00
2022-08-07T03:36:59.764Z,20.00
2022-08-07T03:38:00.729Z,24.00
2022-08-07T03:39:05.526Z,28.00
2022-08-07T03:40:15.626Z,28.00
2022-08-07T03:41:00.787Z,36.00
2022-08-07T03:42:00.654Z,40.00
2022-08-07T03:42:59.683Z,44.00
2022-08-07T03:43:59.680Z,44.00
2022-08-07T03:44:59.673Z,52.00
2022-08-07T03:45:59.662Z,56.00
2022-08-07T03:47:11.429Z,68.00
2022-08-07T03:48:00.642Z,72.00
2022-08-07T03:49:02.743Z,76.00
2022-08-07T03:49:59.669Z,88.00
2022-08-07T03:50:59.617Z,96.00
2022-08-07T03:52:01.135Z,104.00
2022-08-07T03:52:59.611Z,112.00
2022-08-07T03:54:32.940Z,120.00
2022-08-07T03:55:07.170Z,132.00
2022-08-07T03:56:03.993Z,140.00
2022-08-07T03:57:03.598Z,156.00
2022-08-07T03:58:35.151Z,168.00
2022-08-07T03:59:08.202Z,184.00
2022-08-07T04:00:01.637Z,196.00
2022-08-07T04:01:00.669Z,208.00
2022-08-07T04:01:59.634Z,224.00
2022-08-07T04:02:59.632Z,244.00
2022-08-07T04:03:59.521Z,260.00
2022-08-07T04:05:00.531Z,276.00
2022-08-07T04:05:59.916Z,292.00
2022-08-07T04:07:00.122Z,312.00
2022-08-07T04:07:59.488Z,332.00
2022-08-07T04:08:59.481Z,352.00
2022-08-07T04:09:59.473Z,372.00
2022-08-07T04:12:23.849Z,416.00
2022-08-07T04:12:27.947Z,392.00
2022-08-07T04:13:00.452Z,436.00
2022-08-07T04:14:10.775Z,456.00
2022-08-07T04:15:00.551Z,480.00
2022-08-07T04:15:59.434Z,504.00
2022-08-07T04:16:59.423Z,528.00
2022-08-07T04:18:57.735Z,548.00
2022-08-07T04:19:01.553Z,572.00
2022-08-07T04:20:00.391Z,600.00
2022-08-07T04:21:00.402Z,632.00
2022-08-07T04:22:08.621Z,664.00
2022-08-07T04:23:01.806Z,692.00
2022-08-07T04:24:06.075Z,720.00
2022-08-07T04:25:01.452Z,752.00
2022-08-07T04:25:59.368Z,780.00
2022-08-07T04:26:59.350Z,812.00
2022-08-07T04:28:00.846Z,856.00
2022-08-07T04:28:59.335Z,956.00
2022-08-07T04:30:01.963Z,1260.00
2022-08-07T04:30:59.362Z,2024.00
2022-08-07T04:32:03.192Z,4212.00
2022-08-07T04:33:00.348Z,7776.00
2022-08-07T04:33:59.299Z,8720.00
2022-08-07T04:34:59.306Z,8272.00
2022-08-07T04:35:59.282Z,8872.00
2022-08-07T04:36:59.285Z,9048.00
2022-08-07T04:38:06.957Z,9184.00
2022-08-07T04:39:00.330Z,9232.00
2022-08-07T04:40:00.134Z,9276.00
2022-08-07T04:40:59.246Z,9204.00
2022-08-07T04:41:59.233Z,9072.00
2022-08-07T04:43:02.056Z,9024.00
2022-08-07T04:44:12.106Z,9244.00
2022-08-07T04:45:03.217Z,9568.00
2022-08-07T04:46:01.523Z,9940.00
2022-08-07T04:47:04.515Z,10460.00
2022-08-07T04:48:05.577Z,11012.00
2022-08-07T04:49:01.590Z,11520.00
2022-08-07T04:50:04.592Z,11904.00
2022-08-07T04:51:00.165Z,12192.00
2022-08-07T04:51:59.159Z,12448.00
2022-08-07T04:52:59.181Z,12768.00
2022-08-07T04:54:05.895Z,13184.00
2022-08-07T04:55:00.133Z,13856.00
2022-08-07T04:58:09.998Z,15968.00
2022-08-07T04:58:14.297Z,21440.00
2022-08-07T04:58:15.788Z,28192.00
2022-08-07T05:00:11.510Z,30624.00
2022-08-07T05:01:00.142Z,31552.00
2022-08-07T05:01:59.087Z,31744.00
2022-08-07T05:02:59.102Z,32928.00
2022-08-07T05:04:06.760Z,34752.00
2022-08-07T05:05:00.074Z,35776.00
2022-08-07T05:05:59.051Z,36160.00
2022-08-07T05:06:59.191Z,39104.00
2022-08-07T05:07:59.062Z,41152.00
2022-08-07T05:09:01.895Z,40416.00
2022-08-07T05:09:59.028Z,41152.00
2022-08-07T05:11:02.541Z,42592.00
2022-08-07T05:12:02.411Z,42336.00
2022-08-07T05:14:45.553Z,42208.00
2022-08-07T05:14:52.899Z,44640.00
2022-08-07T05:15:04.229Z,47232.00
2022-08-07T05:15:59.981Z,46976.00
2022-08-07T05:16:58.975Z,48832.00
2022-08-07T05:18:00.543Z,48352.00
2022-08-07T05:18:58.951Z,45024.00
2022-08-07T05:19:58.946Z,41632.00
2022-08-07T05:20:58.942Z,44704.00
2022-08-07T05:22:01.409Z,49408.00
2022-08-07T05:22:58.951Z,49536.00
2022-08-07T05:23:58.913Z,46144.00
2022-08-07T05:24:59.744Z,42368.00
2022-08-07T05:26:15.553Z,39392.00
2022-08-07T05:26:59.887Z,37024.00
2022-08-07T05:28:03.523Z,35968.00
2022-08-07T05:28:59.878Z,34624.00
2022-08-07T05:29:58.913Z,35904.00
2022-08-07T05:30:58.861Z,36384.00
2022-08-07T05:31:58.853Z,35104.00
2022-08-07T05:32:58.868Z,35744.00
2022-08-07T05:34:04.264Z,39392.00
2022-08-07T05:34:59.839Z,43200.00
2022-08-07T05:35:58.828Z,43776.00
2022-08-07T05:36:58.823Z,29024.00
2022-08-07T05:38:09.634Z,10316.00
2022-08-07T05:40:07.111Z,7568.00
2022-08-07T05:40:14.104Z,6128.00
2022-08-07T05:41:00.849Z,5404.00
2022-08-07T05:42:00.490Z,5164.00
2022-08-07T05:42:58.799Z,5092.00
2022-08-07T05:44:12.191Z,5080.00
2022-08-07T05:45:14.455Z,5084.00
2022-08-07T05:45:59.749Z,5092.00
2022-08-07T05:47:00.329Z,5144.00
2022-08-07T05:48:01.242Z,5164.00
2022-08-07T05:48:59.503Z,5204.00
2022-08-07T05:49:58.717Z,5248.00
2022-08-07T05:50:58.706Z,5324.00
2022-08-07T05:51:58.698Z,5392.00
2022-08-07T05:52:58.719Z,5392.00
2022-08-07T05:54:13.523Z,5372.00
2022-08-07T05:55:02.960Z,5376.00
2022-08-07T05:56:03.162Z,5376.00
2022-08-07T05:56:58.803Z,5400.00
2022-08-07T05:57:58.686Z,5336.00
2022-08-07T05:58:58.642Z,5260.00
2022-08-07T05:59:58.637Z,5132.00
2022-08-07T06:00:58.642Z,5048.00
2022-08-07T06:01:59.709Z,4940.00
2022-08-07T06:02:58.610Z,4784.00
2022-08-07T06:04:01.298Z,4668.00
2022-08-07T06:04:58.601Z,4540.00
2022-08-07T06:05:58.626Z,4428.00
2022-08-07T06:07:03.823Z,4296.00
2022-08-07T06:08:13.138Z,4168.00
2022-08-07T06:08:59.571Z,4040.00
2022-08-07T06:10:04.767Z,3904.00
2022-08-07T06:10:59.549Z,3788.00
2022-08-07T06:11:59.547Z,3676.00
2022-08-07T06:12:58.538Z,3544.00
2022-08-07T06:14:13.139Z,3408.00
2022-08-07T06:15:05.286Z,3308.00
2022-08-07T06:15:59.518Z,3220.00
2022-08-07T06:16:58.507Z,3136.00
2022-08-07T06:17:58.503Z,3052.00
2022-08-07T06:18:58.532Z,2992.00
2022-08-07T06:20:04.171Z,2944.00
2022-08-07T06:22:14.587Z,2912.00
2022-08-07T06:22:16.585Z,2880.00
2022-08-07T06:23:02.463Z,2848.00
2022-08-07T06:24:37.456Z,2824.00
2022-08-07T06:25:01.550Z,2796.00
2022-08-07T06:25:58.440Z,2768.00
2022-08-07T06:26:58.427Z,2748.00
2022-08-07T06:28:02.848Z,2724.00
2022-08-07T06:29:01.343Z,2700.00
2022-08-07T06:29:58.435Z,2680.00
2022-08-07T06:30:58.629Z,2660.00
2022-08-07T06:31:58.396Z,2636.00
2022-08-07T06:32:58.386Z,2616.00
2022-08-07T06:33:58.406Z,2596.00
2022-08-07T06:34:58.371Z,2580.00
2022-08-07T06:36:12.061Z,2564.00
2022-08-07T06:36:59.357Z,2548.00
2022-08-07T06:37:58.377Z,2532.00
2022-08-07T06:40:15.632Z,2520.00
2022-08-07T06:40:16.591Z,2512.00
2022-08-07T06:40:59.391Z,2492.00
2022-08-07T06:42:02.440Z,2484.00
2022-08-07T06:42:58.307Z,2472.00
2022-08-07T06:44:01.471Z,2464.00
2022-08-07T06:44:59.300Z,2452.00
2022-08-07T06:46:01.017Z,2440.00
2022-08-07T06:47:12.057Z,2428.00
2022-08-07T06:47:59.796Z,2424.00
2022-08-07T06:48:58.290Z,2408.00
2022-08-07T06:49:58.969Z,2400.00
2022-08-07T06:50:58.251Z,2392.00
2022-08-07T06:52:02.865Z,2384.00
2022-08-07T06:53:00.261Z,2376.00
2022-08-07T06:55:27.397Z,2368.00
2022-08-07T06:55:33.047Z,2368.00
2022-08-07T06:56:01.505Z,2360.00
2022-08-07T06:56:58.205Z,2360.00
2022-08-07T06:57:59.327Z,2352.00
2022-08-07T07:00:14.595Z,2352.00
2022-08-07T07:00:15.072Z,2348.00
2022-08-07T07:00:59.179Z,2344.00
2022-08-07T07:01:58.392Z,2340.00
2022-08-07T07:03:01.353Z,2340.00
2022-08-07T07:04:27.648Z,2340.00
2022-08-07T07:04:59.134Z,2340.00
2022-08-07T07:06:02.960Z,2344.00
2022-08-07T07:07:01.125Z,2340.00
2022-08-07T07:07:59.859Z,2348.00
2022-08-07T07:08:59.099Z,2352.00
2022-08-07T07:09:58.092Z,2348.00
2022-08-07T07:10:59.000Z,2352.00
2022-08-07T07:12:07.607Z,2356.00
2022-08-07T07:12:59.099Z,2360.00
2022-08-07T07:14:01.411Z,2364.00
2022-08-07T07:14:58.050Z,2364.00
2022-08-07T07:15:58.041Z,2364.00
2022-08-07T07:16:58.036Z,2364.00
2022-08-07T07:17:58.162Z,2364.00
2022-08-07T07:18:58.017Z,2364.00
2022-08-07T07:19:59.152Z,2368.00
2022-08-07T07:20:59.009Z,2372.00
2022-08-07T07:22:04.633Z,2372.00
2022-08-07T07:24:10.106Z,2372.00
2022-08-07T07:24:10.106Z,2372.00
2022-08-07T07:25:13.912Z,2372.00
2022-08-07T07:26:34.280Z,2380.00
2022-08-07T07:26:58.955Z,2376.00
2022-08-07T07:28:02.145Z,2380.00
2022-08-07T07:29:56.216Z,2388.00
2022-08-07T07:30:09.749Z,2392.00
2022-08-07T07:30:58.944Z,2392.00
2022-08-07T07:31:57.937Z,2396.00
2022-08-07T07:32:57.917Z,2396.00
2022-08-07T07:33:57.937Z,2400.00
2022-08-07T07:34:57.898Z,2396.00
2022-08-07T07:36:05.206Z,2400.00
2022-08-07T07:36:58.887Z,2400.00
2022-08-07T07:38:02.415Z,2400.00
2022-08-07T07:38:58.932Z,2388.00
2022-08-07T07:39:57.918Z,2396.00
2022-08-07T07:41:01.943Z,2384.00
2022-08-07T07:42:09.064Z,2368.00
2022-08-07T07:43:11.747Z,2348.00
2022-08-07T07:44:17.122Z,2344.00
2022-08-07T07:44:58.830Z,2344.00
2022-08-07T07:46:36.790Z,2356.00
2022-08-07T07:47:11.985Z,2380.00
2022-08-07T07:47:59.798Z,2384.00
2022-08-07T07:48:59.874Z,2380.00
2022-08-07T07:50:32.477Z,2376.00
2022-08-07T07:50:58.781Z,2372.00
2022-08-07T07:51:59.623Z,2372.00
2022-08-07T07:52:57.776Z,2372.00
2022-08-07T07:53:57.782Z,2372.00
2022-08-07T07:54:57.760Z,2376.00
2022-08-07T07:56:01.039Z,2372.00
2022-08-07T07:56:57.730Z,2372.00
2022-08-07T07:57:58.290Z,2364.00
2022-08-07T07:58:57.744Z,2360.00
2022-08-07T07:59:57.708Z,2364.00
2022-08-07T08:00:57.713Z,2368.00
2022-08-07T08:02:03.812Z,2372.00
2022-08-07T08:03:05.187Z,2376.00
2022-08-07T08:04:06.395Z,2376.00
2022-08-07T08:04:59.114Z,2372.00
2022-08-07T08:05:57.659Z,2376.00
2022-08-07T08:07:02.723Z,2384.00
2022-08-07T08:08:00.881Z,2388.00
2022-08-07T08:08:57.680Z,2396.00
2022-08-07T08:10:04.826Z,2404.00
2022-08-07T08:10:58.618Z,2412.00
2022-08-07T08:12:02.639Z,2400.00
2022-08-07T08:12:59.859Z,2384.00
2022-08-07T08:13:57.628Z,2368.00
2022-08-07T08:14:57.588Z,2372.00
2022-08-07T08:16:00.725Z,2368.00
2022-08-07T08:17:58.835Z,2392.00
2022-08-07T08:18:36.432Z,2384.00
2022-08-07T08:20:17.082Z,2404.00
2022-08-07T08:20:18.007Z,2404.00
2022-08-07T08:20:58.550Z,2420.00
2022-08-07T08:22:03.049Z,2428.00
2022-08-07T08:22:58.538Z,2436.00
2022-08-07T08:23:57.560Z,2440.00
2022-08-07T08:25:18.256Z,2444.00
2022-08-07T08:26:04.602Z,2444.00
2022-08-07T08:26:58.525Z,2440.00
2022-08-07T08:28:01.975Z,2432.00
2022-08-07T08:28:58.506Z,2440.00
2022-08-07T08:29:57.475Z,2452.00
2022-08-07T08:30:57.491Z,2452.00
2022-08-07T08:31:58.944Z,2452.00
2022-08-07T08:32:58.463Z,2452.00
2022-08-07T08:33:57.904Z,2456.00
2022-08-07T08:34:57.442Z,2460.00
2022-08-07T08:35:57.431Z,2464.00
2022-08-07T08:36:58.065Z,2464.00
2022-08-07T08:38:01.362Z,2460.00
2022-08-07T08:38:59.087Z,2464.00
2022-08-07T08:39:58.686Z,2456.00
2022-08-07T08:40:57.402Z,2456.00
2022-08-07T08:41:59.355Z,2460.00
2022-08-07T08:42:57.377Z,2480.00
2022-08-07T08:43:59.349Z,2492.00
2022-08-07T08:44:57.386Z,2492.00
2022-08-07T08:46:00.690Z,2492.00
2022-08-07T08:46:57.362Z,2496.00
2022-08-07T08:47:57.387Z,2496.00
2022-08-07T08:48:57.360Z,2496.00
2022-08-07T08:50:05.178Z,2496.00
2022-08-07T08:50:58.327Z,2496.00
2022-08-07T08:52:13.240Z,2504.00
2022-08-07T08:52:58.302Z,2512.00
2022-08-07T08:53:57.317Z,2508.00
2022-08-07T08:54:57.295Z,2504.00
2022-08-07T08:55:59.013Z,2512.00
2022-08-07T08:56:57.271Z,2512.00
2022-08-07T08:57:57.272Z,2516.00
2022-08-07T08:58:57.283Z,2524.00
2022-08-07T08:59:57.428Z,2528.00
2022-08-07T09:00:57.264Z,2528.00
2022-08-07T09:01:59.564Z,2520.00
2022-08-07T09:02:57.563Z,2528.00
2022-08-07T09:03:57.248Z,2524.00
2022-08-07T09:04:57.213Z,2532.00
2022-08-07T09:05:57.205Z,2536.00
2022-08-07T09:06:57.214Z,2540.00
2022-08-07T09:07:57.648Z,2536.00
2022-08-07T09:08:57.220Z,2536.00
2022-08-07T09:09:57.454Z,2540.00
2022-08-07T09:10:57.165Z,2536.00
2022-08-07T09:12:08.907Z,2544.00
2022-08-07T09:12:59.143Z,2544.00
2022-08-07T09:13:57.167Z,2548.00
2022-08-07T09:14:58.873Z,2544.00
2022-08-07T09:16:23.408Z,2556.00
2022-08-07T09:16:58.119Z,2556.00
2022-08-07T09:17:59.656Z,2560.00
2022-08-07T09:18:58.621Z,2556.00
2022-08-07T09:19:57.092Z,2556.00
2022-08-07T09:20:57.843Z,2552.00
2022-08-07T09:22:23.102Z,2548.00
2022-08-07T09:24:30.792Z,2544.00
2022-08-07T09:24:33.073Z,2552.00
2022-08-07T09:24:59.305Z,2560.00
2022-08-07T09:25:57.049Z,2560.00
2022-08-07T09:26:57.220Z,2548.00
2022-08-07T09:28:01.262Z,2548.00
2022-08-07T09:30:00.584Z,2548.00
2022-08-07T09:30:06.432Z,2540.00
2022-08-07T09:30:58.011Z,2532.00
2022-08-07T09:31:57.008Z,2524.00
2022-08-07T09:32:57.002Z,2524.00
2022-08-07T09:33:58.202Z,2528.00
2022-08-07T09:34:57.017Z,2536.00
2022-08-07T09:36:04.124Z,2536.00
2022-08-07T09:36:57.973Z,2544.00
2022-08-07T09:37:56.991Z,2544.00
2022-08-07T09:38:56.955Z,2544.00
2022-08-07T09:39:57.839Z,2532.00
2022-08-07T09:40:56.935Z,2524.00
2022-08-07T09:41:59.045Z,2520.00
2022-08-07T09:42:57.916Z,2520.00
2022-08-07T09:44:05.871Z,2460.00
2022-08-07T09:47:23.902Z,2472.00
2022-08-07T09:47:50.043Z,2456.00
2022-08-07T09:47:51.180Z,2428.00
2022-08-07T09:48:02.812Z,2408.00
2022-08-07T09:50:01.083Z,2300.00
2022-08-07T09:50:04.153Z,2276.00
2022-08-07T09:50:59.481Z,2480.00
2022-08-07T09:52:10.428Z,2504.00
2022-08-07T09:52:57.848Z,2476.00
2022-08-07T09:54:00.614Z,2484.00
2022-08-07T09:54:58.883Z,2528.00
2022-08-07T09:56:03.106Z,2520.00
2022-08-07T09:56:57.818Z,2500.00
2022-08-07T09:57:56.830Z,2464.00
2022-08-07T09:58:56.799Z,2468.00
2022-08-07T10:00:01.464Z,2512.00
2022-08-07T10:00:58.787Z,2452.00
2022-08-07T10:01:56.777Z,2524.00
2022-08-07T10:02:56.776Z,2540.00
2022-08-07T10:04:06.292Z,2528.00
2022-08-07T10:04:57.835Z,2552.00
2022-08-07T10:05:59.133Z,2572.00
2022-08-07T10:06:57.750Z,2576.00
2022-08-07T10:07:57.146Z,2580.00
2022-08-07T10:08:56.732Z,2568.00
2022-08-07T10:10:00.972Z,2552.00
2022-08-07T10:11:17.003Z,2560.00
2022-08-07T10:12:01.723Z,2584.00
2022-08-07T10:12:56.741Z,2608.00
2022-08-07T10:14:01.668Z,2616.00
2022-08-07T10:14:57.715Z,2628.00
2022-08-07T10:15:56.682Z,2656.00
2022-08-07T10:16:59.541Z,2672.00
2022-08-07T10:18:02.883Z,2692.00
2022-08-07T10:18:57.670Z,2704.00
2022-08-07T10:19:56.675Z,2708.00
2022-08-07T10:20:56.637Z,2720.00
2022-08-07T10:22:15.965Z,2720.00
2022-08-07T10:22:57.634Z,2720.00
2022-08-07T10:24:05.477Z,2716.00
2022-08-07T10:24:57.632Z,2708.00
2022-08-07T10:25:56.614Z,2704.00
2022-08-07T10:26:56.664Z,2708.00
2022-08-07T10:27:56.586Z,2708.00
2022-08-07T10:28:56.611Z,2700.00
2022-08-07T10:29:56.611Z,2704.00
2022-08-07T10:30:56.575Z,2704.00
2022-08-07T10:31:56.565Z,2700.00
2022-08-07T10:32:59.994Z,2704.00
2022-08-07T10:34:06.968Z,2704.00
2022-08-07T10:34:57.581Z,2708.00
2022-08-07T10:36:10.820Z,2696.00
2022-08-07T10:36:58.534Z,2692.00
2022-08-07T10:38:20.983Z,2680.00
2022-08-07T10:38:57.510Z,2664.00
2022-08-07T10:39:57.568Z,2664.00
2022-08-07T10:40:57.493Z,2652.00
2022-08-07T10:42:09.207Z,2644.00
2022-08-07T10:42:57.491Z,2632.00
2022-08-07T10:44:07.265Z,2604.00
2022-08-07T10:44:57.488Z,2576.00
2022-08-07T10:45:57.643Z,2580.00
2022-08-07T10:46:56.458Z,2564.00
2022-08-07T10:48:03.056Z,2612.00
2022-08-07T10:48:58.448Z,2604.00
2022-08-07T10:49:56.463Z,2604.00
2022-08-07T10:50:56.427Z,2596.00
2022-08-07T10:52:02.292Z,2588.00
2022-08-07T10:52:57.413Z,2572.00
2022-08-07T10:54:00.096Z,2576.00
2022-08-07T10:55:01.839Z,2572.00
2022-08-07T10:55:57.379Z,2572.00
2022-08-07T10:56:56.373Z,2568.00
2022-08-07T10:57:56.573Z,2564.00
2022-08-07T10:58:59.326Z,2556.00
2022-08-07T10:59:56.357Z,2572.00
2022-08-07T11:00:56.707Z,2564.00
2022-08-07T11:02:04.786Z,2560.00
2022-08-07T11:02:57.366Z,2560.00
2022-08-07T11:04:16.581Z,2564.00
2022-08-07T11:05:10.650Z,2552.00
2022-08-07T11:06:00.159Z,2548.00
2022-08-07T11:07:03.508Z,2552.00
2022-08-07T11:08:00.715Z,2552.00
2022-08-07T11:08:57.278Z,2552.00
2022-08-07T11:10:07.924Z,2544.00
2022-08-07T11:11:00.073Z,2540.00
2022-08-07T11:11:59.271Z,2532.00
2022-08-07T11:13:02.216Z,2532.00
2022-08-07T11:14:46.081Z,2528.00
2022-08-07T11:15:00.583Z,2532.00
2022-08-07T11:15:56.257Z,2536.00
2022-08-07T11:17:01.112Z,2532.00
2022-08-07T11:18:03.605Z,2528.00
2022-08-07T11:18:57.220Z,2528.00
2022-08-07T11:19:56.198Z,2532.00
2022-08-07T11:20:56.229Z,2540.00
2022-08-07T11:21:56.186Z,2544.00
2022-08-07T11:22:56.192Z,2544.00
2022-08-07T11:23:56.188Z,2540.00
2022-08-07T11:24:56.177Z,2548.00
2022-08-07T11:25:56.185Z,2524.00
2022-08-07T11:26:57.148Z,2512.00
2022-08-07T11:28:02.585Z,2508.00
2022-08-07T11:28:57.141Z,2524.00
2022-08-07T11:30:17.544Z,2532.00
2022-08-07T11:30:57.146Z,2524.00
2022-08-07T11:31:56.107Z,2504.00
2022-08-07T11:32:56.102Z,2512.00
2022-08-07T11:34:00.082Z,2508.00
2022-08-07T11:34:56.081Z,2500.00
2022-08-07T11:35:59.793Z,2496.00
2022-08-07T11:36:56.364Z,2500.00
2022-08-07T11:38:09.948Z,2500.00
2022-08-07T11:38:57.062Z,2508.00
2022-08-07T11:39:59.843Z,2512.00
2022-08-07T11:40:57.037Z,2508.00
2022-08-07T11:42:01.646Z,2508.00
2022-08-07T11:42:57.018Z,2512.00
2022-08-07T11:44:11.811Z,2512.00
2022-08-07T11:44:58.005Z,2524.00
2022-08-07T11:45:56.016Z,2520.00
2022-08-07T11:46:55.990Z,2516.00
2022-08-07T11:47:59.440Z,2512.00
2022-08-07T11:49:51.420Z,2504.00
2022-08-07T11:50:30.711Z,2508.00
2022-08-07T11:50:57.688Z,2512.00
2022-08-07T11:51:55.949Z,2520.00
2022-08-07T11:52:55.935Z,2512.00
2022-08-07T11:54:01.643Z,2516.00
2022-08-07T11:54:56.957Z,2512.00
2022-08-07T11:56:26.074Z,2516.00
2022-08-07T11:56:56.904Z,2512.00
2022-08-07T11:57:59.818Z,2504.00
2022-08-07T11:58:56.896Z,2504.00
2022-08-07T12:00:12.466Z,2492.00
2022-08-07T12:01:02.584Z,2496.00
2022-08-07T12:02:01.006Z,2488.00
2022-08-07T12:02:55.943Z,2488.00
2022-08-07T12:03:55.881Z,2480.00
2022-08-07T12:04:55.904Z,2464.00
2022-08-07T12:05:58.395Z,2452.00
2022-08-07T12:07:02.387Z,2468.00
2022-08-07T12:08:03.594Z,2476.00
2022-08-07T12:08:57.033Z,2480.00
2022-08-07T12:09:55.840Z,2480.00
2022-08-07T12:11:08.002Z,2464.00
2022-08-07T12:12:10.365Z,2460.00
2022-08-07T12:12:56.788Z,2440.00
2022-08-07T12:13:55.793Z,2456.00
2022-08-07T12:15:01.524Z,2476.00
2022-08-07T12:16:07.055Z,2456.00
2022-08-07T12:16:56.760Z,2444.00
2022-08-07T12:17:59.228Z,2456.00
2022-08-07T12:18:56.757Z,2460.00
2022-08-07T12:20:04.104Z,2460.00
2022-08-07T12:20:56.767Z,2456.00
2022-08-07T12:22:39.310Z,2436.00
2022-08-07T12:22:58.404Z,2444.00
2022-08-07T12:24:07.634Z,2456.00
2022-08-07T12:25:02.539Z,2448.00
2022-08-07T12:26:02.869Z,2440.00